createdAt,value
2023-03-31T00:02:21.903Z,38.77
2023-03-31T00:04:52.777Z,40.35
2023-03-31T00:07:22.133Z,39.00
2023-03-31T00:09:49.823Z,39.47
2023-03-31T00:12:17.544Z,42.05
2023-03-31T00:14:45.390Z,39.39
2023-03-31T00:17:14.636Z,38.54
2023-03-31T00:19:42.817Z,38.79
2023-03-31T00:22:10.433Z,37.94
2023-03-31T00:24:38.136Z,37.33
2023-03-31T00:27:06.094Z,38.85
2023-03-31T00:29:35.889Z,40.85
2023-03-31T00:32:03.684Z,41.66
2023-03-31T00:34:32.781Z,37.91
2023-03-31T00:37:02.657Z,36.92
2023-03-31T00:39:33.793Z,37.61
2023-03-31T00:42:03.218Z,37.89
2023-03-31T00:44:33.475Z,39.10
2023-03-31T00:47:02.799Z,37.90
2023-03-31T00:49:32.941Z,39.63
2023-03-31T00:52:02.346Z,39.31
2023-03-31T00:54:30.512Z,37.94
2023-03-31T00:57:03.152Z,39.72
2023-03-31T00:59:31.855Z,39.03
2023-03-31T01:02:02.638Z,38.87
2023-03-31T01:04:32.190Z,40.23
2023-03-31T01:07:02.374Z,40.10
2023-03-31T01:09:34.808Z,40.22
2023-03-31T01:12:03.358Z,40.33
2023-03-31T01:14:31.871Z,40.07
2023-03-31T01:16:59.652Z,39.68
2023-03-31T01:19:30.707Z,38.92
2023-03-31T01:22:08.739Z,37.61
2023-03-31T01:24:40.910Z,38.93
2023-03-31T01:27:17.652Z,37.94
2023-03-31T01:29:59.245Z,37.58
2023-03-31T01:32:38.736Z,40.11
2023-03-31T01:35:12.267Z,39.49
2023-03-31T01:37:54.829Z,39.18
2023-03-31T01:40:27.143Z,37.14
2023-03-31T01:42:55.386Z,37.28
2023-03-31T01:45:27.102Z,37.61
2023-03-31T01:47:58.135Z,39.87
2023-03-31T01:50:27.257Z,38.95
2023-03-31T01:53:00.339Z,37.29
2023-03-31T01:55:31.277Z,37.79
2023-03-31T01:58:00.196Z,39.26
2023-03-31T02:00:29.530Z,38.72
2023-03-31T02:02:58.191Z,36.67
2023-03-31T02:05:26.938Z,39.08
2023-03-31T02:07:55.025Z,37.93
2023-03-31T02:10:24.190Z,38.58
2023-03-31T02:12:53.411Z,37.65
2023-03-31T02:15:22.163Z,36.86
2023-03-31T02:17:50.895Z,36.77
2023-03-31T02:20:19.107Z,36.90
2023-03-31T02:22:47.636Z,36.76
2023-03-31T02:25:15.870Z,36.66
2023-03-31T02:27:44.375Z,37.27
2023-03-31T02:30:13.702Z,36.71
2023-03-31T02:32:41.747Z,35.96
2023-03-31T02:35:10.617Z,36.37
2023-03-31T02:37:38.309Z,36.06
2023-03-31T02:40:08.926Z,37.41
2023-03-31T02:42:36.605Z,37.44
2023-03-31T02:45:04.912Z,35.43
2023-03-31T02:47:34.216Z,36.34
2023-03-31T02:50:02.303Z,38.01
2023-03-31T02:52:38.103Z,37.64
2023-03-31T02:55:12.255Z,36.99
2023-03-31T02:57:53.349Z,35.91
2023-03-31T03:00:22.412Z,36.07
2023-03-31T03:02:54.290Z,37.06
2023-03-31T03:05:27.216Z,36.25
2023-03-31T03:08:26.147Z,37.65
2023-03-31T03:10:57.294Z,38.11
2023-03-31T03:13:26.716Z,37.78
2023-03-31T03:15:56.996Z,37.65
2023-03-31T03:18:26.016Z,38.01
2023-03-31T03:20:53.651Z,37.24
2023-03-31T03:23:22.650Z,36.78
2023-03-31T03:25:51.073Z,37.58
2023-03-31T03:28:18.681Z,37.02
2023-03-31T03:30:46.444Z,37.25
2023-03-31T03:33:17.130Z,39.25
2023-03-31T03:35:46.404Z,38.53
2023-03-31T03:38:14.055Z,37.63
2023-03-31T03:40:41.664Z,36.52
2023-03-31T03:43:09.285Z,36.45
2023-03-31T03:45:36.862Z,37.66
2023-03-31T03:48:04.765Z,36.40
2023-03-31T03:50:32.426Z,36.08
2023-03-31T03:53:01.692Z,35.81
2023-03-31T03:55:29.351Z,35.83
2023-03-31T03:57:56.942Z,36.28
2023-03-31T04:00:24.587Z,39.02
2023-03-31T04:02:52.307Z,37.56
2023-03-31T04:05:19.960Z,38.34
2023-03-31T04:07:47.639Z,38.90
2023-03-31T04:10:16.835Z,39.18
2023-03-31T04:12:44.485Z,37.28
2023-03-31T04:15:12.596Z,39.88
2023-03-31T04:17:40.258Z,37.90
2023-03-31T04:20:09.860Z,38.87
2023-03-31T04:22:41.052Z,38.18
2023-03-31T04:25:14.676Z,38.38
2023-03-31T04:27:46.705Z,37.73
2023-03-31T04:30:22.528Z,37.21
2023-03-31T04:32:51.407Z,40.11
2023-03-31T04:35:20.659Z,38.27
2023-03-31T04:37:48.637Z,38.91
2023-03-31T04:40:16.478Z,42.47
2023-03-31T04:42:45.671Z,40.34
2023-03-31T04:45:13.399Z,37.95
2023-03-31T04:47:42.424Z,37.96
2023-03-31T04:50:14.556Z,37.99
2023-03-31T04:52:43.937Z,38.64
2023-03-31T04:55:11.584Z,38.31
2023-03-31T04:57:39.363Z,39.34
2023-03-31T05:00:09.647Z,38.92
2023-03-31T05:02:37.425Z,39.02
2023-03-31T05:05:06.008Z,39.09
2023-03-31T05:07:33.749Z,44.11
2023-03-31T05:10:01.318Z,41.36
2023-03-31T05:12:29.034Z,40.77
2023-03-31T05:14:56.639Z,41.11
2023-03-31T05:17:25.613Z,40.46
2023-03-31T05:19:53.453Z,40.90
2023-03-31T05:22:21.352Z,41.20
2023-03-31T05:24:49.032Z,42.34
2023-03-31T05:27:16.835Z,41.98
2023-03-31T05:29:44.735Z,41.53
2023-03-31T05:32:12.325Z,42.16
2023-03-31T05:34:43.180Z,40.98
2023-03-31T05:37:10.819Z,40.17
2023-03-31T05:39:38.452Z,38.25
2023-03-31T05:42:07.578Z,38.83
2023-03-31T05:44:35.621Z,43.11
2023-03-31T05:47:03.262Z,40.95
2023-03-31T05:49:30.907Z,39.92
2023-03-31T05:51:59.870Z,40.64
2023-03-31T05:54:27.817Z,40.77
2023-03-31T05:56:55.538Z,42.16
2023-03-31T05:59:23.232Z,43.19
2023-03-31T06:01:50.960Z,45.55
2023-03-31T06:04:18.706Z,42.69
2023-03-31T06:06:46.317Z,42.13
2023-03-31T06:09:15.310Z,42.00
2023-03-31T06:11:42.890Z,42.54
2023-03-31T06:14:10.624Z,42.29
2023-03-31T06:16:38.242Z,41.22
2023-03-31T06:22:58.809Z,41.11
2023-03-31T06:25:32.371Z,40.30
2023-03-31T06:28:06.296Z,40.61
2023-03-31T06:30:33.947Z,40.13
2023-03-31T06:33:01.821Z,40.36
2023-03-31T06:35:29.718Z,39.72
2023-03-31T06:37:57.856Z,38.28
2023-03-31T06:40:26.603Z,37.76
2023-03-31T06:42:58.068Z,37.56
2023-03-31T06:45:32.298Z,39.73
2023-03-31T06:48:01.822Z,38.93
2023-03-31T06:50:30.032Z,39.91
2023-03-31T06:52:58.915Z,39.65
2023-03-31T06:55:27.283Z,38.63
2023-03-31T06:57:56.481Z,37.45
2023-03-31T07:00:25.921Z,43.29
2023-03-31T07:02:54.222Z,38.19
2023-03-31T07:05:26.742Z,36.56
2023-03-31T07:07:54.596Z,36.60
2023-03-31T07:10:22.951Z,36.79
2023-03-31T07:12:50.943Z,37.47
2023-03-31T07:15:20.297Z,36.84
2023-03-31T07:17:51.350Z,36.61
2023-03-31T07:20:19.802Z,35.64
2023-03-31T07:22:48.368Z,36.84
2023-03-31T07:25:17.153Z,36.05
2023-03-31T07:27:45.359Z,36.83
2023-03-31T07:30:13.728Z,35.74
2023-03-31T07:32:42.796Z,38.46
2023-03-31T07:35:11.320Z,34.72
2023-03-31T07:37:39.002Z,38.03
2023-03-31T07:40:07.747Z,38.87
2023-03-31T07:42:35.593Z,35.56
2023-03-31T07:45:06.017Z,37.63
2023-03-31T07:47:33.786Z,37.29
2023-03-31T07:50:03.210Z,36.65
2023-03-31T07:52:31.569Z,35.69
2023-03-31T07:54:59.304Z,37.37
2023-03-31T07:57:27.130Z,38.09
2023-03-31T07:59:54.801Z,37.37
2023-03-31T08:02:22.524Z,36.33
2023-03-31T08:04:50.902Z,37.80
2023-03-31T08:07:19.932Z,37.74
2023-03-31T08:09:47.825Z,37.40
2023-03-31T08:12:19.232Z,37.74
2023-03-31T08:14:47.340Z,35.82
2023-03-31T08:17:14.965Z,35.16
2023-03-31T08:19:42.678Z,34.47
2023-03-31T08:22:10.462Z,34.85
2023-03-31T08:24:39.734Z,36.01
2023-03-31T08:27:12.042Z,36.71
2023-03-31T08:29:39.962Z,35.65
2023-03-31T08:32:08.003Z,33.35
2023-03-31T08:34:36.368Z,34.75
2023-03-31T08:37:05.923Z,35.24
2023-03-31T08:39:37.634Z,34.67
2023-03-31T08:42:11.022Z,33.71
2023-03-31T08:44:39.652Z,33.47
2023-03-31T08:47:08.494Z,36.58
2023-03-31T08:49:38.472Z,36.89
2023-03-31T08:52:22.393Z,39.31
2023-03-31T08:54:51.049Z,37.88
2023-03-31T08:57:21.018Z,36.96
2023-03-31T08:59:49.436Z,36.26
2023-03-31T09:02:19.585Z,37.31
2023-03-31T09:05:02.637Z,36.47
2023-03-31T09:07:32.184Z,37.51
2023-03-31T09:10:01.852Z,34.98
2023-03-31T09:12:32.029Z,36.00
2023-03-31T09:15:01.412Z,35.81
2023-03-31T09:17:30.230Z,35.58
2023-03-31T09:19:58.922Z,36.79
2023-03-31T09:22:27.711Z,37.21
2023-03-31T09:24:57.320Z,37.12
2023-03-31T09:27:25.081Z,33.00
2023-03-31T09:29:54.586Z,35.22
2023-03-31T09:32:23.113Z,32.31
2023-03-31T09:34:51.815Z,33.81
2023-03-31T09:37:19.420Z,34.14
2023-03-31T09:39:47.094Z,32.97
2023-03-31T09:42:14.759Z,33.29
2023-03-31T09:44:43.145Z,36.33
2023-03-31T09:47:13.162Z,34.27
2023-03-31T09:49:40.837Z,35.07
2023-03-31T09:52:24.230Z,31.87
2023-03-31T09:54:53.038Z,35.50
2023-03-31T09:57:24.953Z,35.58
2023-03-31T09:59:52.769Z,38.89
2023-03-31T10:02:36.185Z,39.17
2023-03-31T10:05:04.755Z,41.94
2023-03-31T10:07:32.482Z,43.63
2023-03-31T10:10:00.214Z,44.41
2023-03-31T10:12:28.712Z,45.33
2023-03-31T10:15:02.918Z,42.34
2023-03-31T10:17:46.999Z,43.43
2023-03-31T10:20:21.343Z,38.35
2023-03-31T10:22:50.068Z,36.78
2023-03-31T10:25:19.288Z,37.48
2023-03-31T10:27:48.990Z,36.41
2023-03-31T10:30:22.914Z,36.46
2023-03-31T10:32:54.530Z,33.43
2023-03-31T10:35:23.938Z,36.58
2023-03-31T10:37:51.822Z,34.75
2023-03-31T10:40:20.832Z,33.70
2023-03-31T10:42:50.396Z,34.69
2023-03-31T10:45:36.407Z,35.88
2023-03-31T10:48:06.972Z,41.40
2023-03-31T10:50:37.196Z,43.75
2023-03-31T10:53:07.988Z,52.47
2023-03-31T10:55:37.375Z,51.41
2023-03-31T10:58:08.052Z,49.44
2023-03-31T11:00:37.874Z,47.38
2023-03-31T11:03:14.954Z,44.88
2023-03-31T11:05:45.267Z,43.77
2023-03-31T11:08:21.146Z,43.14
2023-03-31T11:10:55.125Z,42.69
2023-03-31T11:13:23.440Z,40.01
2023-03-31T11:15:52.946Z,40.03
2023-03-31T11:18:28.954Z,41.49
2023-03-31T11:20:58.735Z,39.85
2023-03-31T11:23:28.993Z,35.50
2023-03-31T11:25:58.128Z,36.20
2023-03-31T11:28:27.672Z,38.18
2023-03-31T11:30:57.938Z,36.95
2023-03-31T11:33:30.780Z,36.46
2023-03-31T11:36:04.339Z,36.89
2023-03-31T11:38:35.810Z,35.27
2023-03-31T11:41:07.138Z,33.95
2023-03-31T11:43:36.225Z,38.02
2023-03-31T11:46:04.897Z,36.75
2023-03-31T11:48:37.310Z,38.18
2023-03-31T11:51:05.515Z,39.03
2023-03-31T11:53:33.597Z,37.85
2023-03-31T11:56:02.264Z,38.88
2023-03-31T11:58:31.476Z,40.69
2023-03-31T12:01:02.641Z,39.00
2023-03-31T12:03:33.235Z,36.15
2023-03-31T12:06:04.272Z,34.61
2023-03-31T12:08:33.341Z,37.59
2023-03-31T12:11:01.823Z,35.34
2023-03-31T12:13:40.460Z,34.06
2023-03-31T12:16:10.733Z,34.63
2023-03-31T12:18:39.173Z,35.19
2023-03-31T12:21:08.153Z,36.77
2023-03-31T12:23:36.998Z,36.59
2023-03-31T12:26:07.291Z,39.32
2023-03-31T12:28:37.358Z,40.31
2023-03-31T12:31:06.006Z,47.39
2023-03-31T12:33:33.778Z,47.96
2023-03-31T12:36:06.175Z,49.45
2023-03-31T12:38:41.236Z,46.68
2023-03-31T12:41:09.854Z,46.68
2023-03-31T12:44:07.645Z,46.62
2023-03-31T12:46:39.829Z,48.30
2023-03-31T12:49:16.472Z,45.99
2023-03-31T12:51:59.462Z,47.61
2023-03-31T12:54:33.606Z,47.18
2023-03-31T12:57:05.032Z,44.77
2023-03-31T12:59:33.968Z,45.02
2023-03-31T13:02:17.825Z,46.55
2023-03-31T13:04:45.542Z,45.52
2023-03-31T13:07:27.265Z,48.44
2023-03-31T13:10:00.808Z,51.83
2023-03-31T13:12:31.242Z,64.13
2023-03-31T13:15:00.425Z,73.08
2023-03-31T13:17:33.498Z,83.80
2023-03-31T13:20:17.929Z,100.00
2023-03-31T13:22:47.111Z,100.00
2023-03-31T13:25:42.603Z,98.98
2023-03-31T13:28:16.834Z,95.49
2023-03-31T13:30:48.924Z,90.63
2023-03-31T13:33:18.332Z,81.08
2023-03-31T13:35:46.611Z,85.20
2023-03-31T13:38:15.532Z,83.85
2023-03-31T13:40:57.990Z,69.34
2023-03-31T13:43:49.682Z,70.50
2023-03-31T13:46:31.529Z,76.20
2023-03-31T13:49:00.815Z,71.86
2023-03-31T13:51:36.898Z,73.83
2023-03-31T13:54:07.957Z,68.88
2023-03-31T13:56:40.344Z,72.87
2023-03-31T13:59:22.030Z,75.94
2023-03-31T14:01:59.414Z,66.82
2023-03-31T14:04:40.632Z,65.08
2023-03-31T14:07:08.880Z,72.43
2023-03-31T14:09:36.764Z,84.32
2023-03-31T14:12:19.264Z,83.97
2023-03-31T14:14:47.435Z,79.56
2023-03-31T14:17:16.528Z,84.60
2023-03-31T14:19:49.410Z,65.39
2023-03-31T14:22:19.082Z,65.28
2023-03-31T14:24:48.859Z,59.32
2023-03-31T14:27:19.058Z,62.17
2023-03-31T14:29:48.201Z,62.61
2023-03-31T14:32:18.890Z,62.49
2023-03-31T14:34:50.995Z,62.66
2023-03-31T14:37:20.944Z,63.75
2023-03-31T14:39:50.231Z,60.14
2023-03-31T14:42:18.400Z,62.11
2023-03-31T14:44:48.656Z,58.85
2023-03-31T14:47:18.098Z,54.02
2023-03-31T14:49:46.177Z,55.21
2023-03-31T14:52:14.956Z,56.33
2023-03-31T14:54:42.920Z,55.24
2023-03-31T14:57:11.164Z,58.69
2023-03-31T14:59:38.843Z,59.30
2023-03-31T15:02:06.541Z,56.90
2023-03-31T15:04:42.272Z,55.77
2023-03-31T15:07:10.665Z,64.70
2023-03-31T15:09:38.290Z,56.93
2023-03-31T15:12:08.439Z,55.48
2023-03-31T15:14:36.572Z,57.55
2023-03-31T15:17:04.426Z,56.84
2023-03-31T15:19:34.121Z,58.70
2023-03-31T15:22:04.660Z,59.97
2023-03-31T15:24:32.340Z,60.64
2023-03-31T15:27:00.904Z,60.39
2023-03-31T15:29:33.814Z,55.76
2023-03-31T15:32:01.734Z,53.47
2023-03-31T15:34:33.231Z,52.53
2023-03-31T15:37:01.150Z,51.11
2023-03-31T15:39:31.028Z,53.80
2023-03-31T15:41:58.643Z,53.96
2023-03-31T15:44:30.701Z,49.86
2023-03-31T15:46:59.637Z,50.19
2023-03-31T15:49:27.326Z,50.52
2023-03-31T15:51:56.110Z,49.88
2023-03-31T15:54:31.279Z,52.96
2023-03-31T15:57:00.836Z,51.45
2023-03-31T15:59:37.897Z,54.14
2023-03-31T16:02:10.036Z,51.02
2023-03-31T16:04:37.651Z,50.29
2023-03-31T16:07:07.525Z,49.88
2023-03-31T16:09:41.159Z,55.17
2023-03-31T16:12:11.818Z,54.00
2023-03-31T16:14:40.200Z,51.68
2023-03-31T16:17:08.463Z,52.72
2023-03-31T16:19:39.786Z,51.88
2023-03-31T16:22:11.094Z,49.73
2023-03-31T16:24:39.137Z,49.55
2023-03-31T16:27:09.305Z,51.60
2023-03-31T16:29:37.776Z,51.73
2023-03-31T16:32:09.546Z,49.71
2023-03-31T16:34:37.201Z,48.77
2023-03-31T16:37:11.412Z,46.73
2023-03-31T16:39:39.127Z,48.97
2023-03-31T16:42:08.158Z,47.91
2023-03-31T16:44:35.817Z,49.08
2023-03-31T16:47:03.489Z,49.38
2023-03-31T16:49:31.378Z,49.09
2023-03-31T16:51:59.191Z,49.96
2023-03-31T16:54:27.216Z,48.95
2023-03-31T16:56:54.879Z,47.59
2023-03-31T16:59:24.552Z,47.79
2023-03-31T17:01:52.347Z,47.40
2023-03-31T17:04:20.558Z,47.08
2023-03-31T17:06:48.204Z,49.40
2023-03-31T17:09:15.855Z,47.02
2023-03-31T17:11:43.475Z,46.15
2023-03-31T17:14:11.914Z,45.98
2023-03-31T17:16:48.251Z,46.78
2023-03-31T17:19:17.090Z,47.89
2023-03-31T17:21:44.718Z,48.13
2023-03-31T17:24:12.321Z,47.26
2023-03-31T17:26:40.209Z,47.31
2023-03-31T17:29:09.683Z,47.85
2023-03-31T17:31:37.421Z,51.96
2023-03-31T17:34:06.774Z,51.48
2023-03-31T17:36:34.432Z,52.16
2023-03-31T17:39:02.584Z,49.95
2023-03-31T17:41:30.467Z,48.78
2023-03-31T17:43:58.658Z,50.22
2023-03-31T17:46:26.319Z,50.85
2023-03-31T17:48:56.496Z,48.23
2023-03-31T17:51:25.783Z,47.28
2023-03-31T17:53:53.393Z,48.53
2023-03-31T17:56:21.693Z,48.95
2023-03-31T17:58:49.321Z,48.35
2023-03-31T18:01:16.957Z,47.80
2023-03-31T18:03:46.290Z,48.56
2023-03-31T18:06:14.440Z,49.67
2023-03-31T18:08:43.695Z,50.60
2023-03-31T18:11:11.484Z,48.41
2023-03-31T18:13:39.433Z,50.82
2023-03-31T18:16:08.607Z,53.11
2023-03-31T18:18:36.717Z,53.93
2023-03-31T18:21:04.936Z,51.55
2023-03-31T18:23:33.758Z,53.76
2023-03-31T18:26:02.887Z,50.70
2023-03-31T18:28:30.596Z,51.15
2023-03-31T18:30:58.202Z,60.69
2023-03-31T18:33:25.992Z,57.73
2023-03-31T18:35:53.809Z,56.58
2023-03-31T18:38:24.748Z,52.00
2023-03-31T18:40:55.003Z,52.50
2023-03-31T18:43:24.604Z,53.93
2023-03-31T18:45:53.551Z,53.34
2023-03-31T18:48:23.998Z,55.65
2023-03-31T18:50:52.414Z,57.76
2023-03-31T18:53:20.647Z,59.75
2023-03-31T18:55:49.783Z,59.07
2023-03-31T18:58:17.491Z,60.26
2023-03-31T19:00:46.962Z,58.77
2023-03-31T19:03:15.035Z,58.55
2023-03-31T19:05:42.814Z,58.95
2023-03-31T19:08:10.623Z,55.82
2023-03-31T19:10:38.312Z,58.45
2023-03-31T19:13:05.951Z,56.33
2023-03-31T19:15:33.780Z,60.74
2023-03-31T19:18:02.782Z,58.53
2023-03-31T19:20:30.499Z,74.28
2023-03-31T19:22:58.543Z,78.99
2023-03-31T19:25:26.410Z,72.68
2023-03-31T19:27:54.754Z,67.64
2023-03-31T19:30:23.484Z,64.21
2023-03-31T19:35:20.544Z,58.58
2023-03-31T19:37:48.658Z,53.59
2023-03-31T19:40:16.469Z,61.25
2023-03-31T19:42:44.459Z,58.46
2023-03-31T19:45:12.236Z,54.42
2023-03-31T19:47:40.016Z,67.48
2023-03-31T19:50:08.421Z,64.37
2023-03-31T19:52:37.544Z,74.68
2023-03-31T19:55:05.482Z,62.15
2023-03-31T19:57:33.092Z,66.93
2023-03-31T20:00:01.347Z,60.99
2023-03-31T20:02:33.165Z,51.36
2023-03-31T20:05:00.992Z,51.09
2023-03-31T20:07:29.320Z,59.81
2023-03-31T20:09:58.264Z,55.71
2023-03-31T20:12:25.975Z,58.67
2023-03-31T20:14:54.243Z,57.48
2023-03-31T20:17:21.861Z,60.17
2023-03-31T20:19:49.711Z,57.80
2023-03-31T20:22:17.345Z,54.27
2023-03-31T20:24:53.877Z,57.68
2023-03-31T20:27:26.311Z,55.72
2023-03-31T20:29:54.037Z,55.00
2023-03-31T20:32:22.239Z,70.07
2023-03-31T20:34:50.070Z,63.67
2023-03-31T20:37:18.199Z,59.79
2023-03-31T20:39:45.849Z,58.70
2023-03-31T20:42:14.843Z,60.34
2023-03-31T20:44:43.870Z,56.61
2023-03-31T20:47:14.253Z,62.09
2023-03-31T20:49:41.961Z,58.02
2023-03-31T20:52:09.860Z,55.30
2023-03-31T20:54:38.100Z,57.26
2023-03-31T20:57:07.153Z,57.72
2023-03-31T20:59:34.884Z,58.62
2023-03-31T21:02:03.807Z,55.92
2023-03-31T21:04:31.550Z,56.56
2023-03-31T21:06:59.496Z,56.10
2023-03-31T21:09:27.129Z,56.33
2023-03-31T21:11:54.882Z,59.22
2023-03-31T21:14:22.586Z,61.15
2023-03-31T21:16:50.311Z,58.06
2023-03-31T21:19:19.340Z,56.01
2023-03-31T21:21:46.960Z,55.40
2023-03-31T21:24:14.603Z,55.38
2023-03-31T21:26:42.276Z,55.15
2023-03-31T21:29:10.041Z,52.20
2023-03-31T21:31:37.706Z,48.77
2023-03-31T21:34:05.522Z,51.40
2023-03-31T21:36:34.851Z,52.15
2023-03-31T21:39:02.560Z,52.85
2023-03-31T21:41:31.277Z,53.01
2023-03-31T21:44:00.447Z,52.21
2023-03-31T21:46:29.859Z,54.84
2023-03-31T21:48:57.609Z,59.72
2023-03-31T21:51:25.927Z,57.30
2023-03-31T21:53:55.574Z,58.65
2023-03-31T21:56:23.917Z,55.51
2023-03-31T21:58:51.896Z,54.25
2023-03-31T22:01:19.525Z,53.33
2023-03-31T22:03:48.652Z,52.88
2023-03-31T22:06:16.448Z,52.43
2023-03-31T22:08:44.097Z,50.46
2023-03-31T22:11:13.388Z,51.39
2023-03-31T22:13:41.141Z,50.98
2023-03-31T22:16:15.530Z,49.92
2023-03-31T22:18:43.371Z,51.02
2023-03-31T22:21:14.828Z,49.76
2023-03-31T22:23:42.428Z,52.21
2023-03-31T22:26:10.034Z,51.14
2023-03-31T22:28:39.033Z,49.87
2023-03-31T22:31:06.712Z,50.09
2023-03-31T22:33:34.376Z,51.22
2023-03-31T22:36:02.038Z,52.26
2023-03-31T22:38:29.734Z,51.60
2023-03-31T22:40:57.335Z,51.30
2023-03-31T22:43:24.966Z,49.49
2023-03-31T22:45:53.917Z,50.99
2023-03-31T22:48:21.636Z,49.61
2023-03-31T22:50:49.230Z,49.61
2023-03-31T22:53:16.880Z,49.49
2023-03-31T22:55:54.482Z,51.10
2023-03-31T22:58:22.710Z,55.37
2023-03-31T23:00:57.119Z,50.85
2023-03-31T23:03:24.953Z,54.49
2023-03-31T23:05:52.565Z,50.76
2023-03-31T23:08:20.620Z,51.52
2023-03-31T23:10:54.877Z,50.50
2023-03-31T23:13:22.516Z,49.09
2023-03-31T23:15:50.415Z,48.12
2023-03-31T23:18:19.538Z,49.63
2023-03-31T23:20:47.224Z,50.39
2023-03-31T23:23:14.943Z,49.35
2023-03-31T23:25:42.579Z,51.22
2023-03-31T23:28:10.232Z,48.98
2023-03-31T23:30:37.839Z,48.46
2023-03-31T23:33:05.944Z,47.85
2023-03-31T23:35:35.013Z,49.16
2023-03-31T23:38:03.107Z,49.26
2023-03-31T23:40:30.819Z,50.91
2023-03-31T23:42:58.469Z,53.06
2023-03-31T23:45:26.253Z,48.46
2023-03-31T23:47:53.938Z,49.48
2023-03-31T23:50:21.842Z,48.89
2023-03-31T23:52:50.870Z,48.93
2023-03-31T23:55:18.619Z,48.56
2023-03-31T23:57:46.354Z,47.54
